createdAt,value
2022-08-17T00:00:51.756Z,20.80
2022-08-17T00:03:23.354Z,20.90
2022-08-17T00:05:54.419Z,20.90
2022-08-17T00:08:22.313Z,20.80
2022-08-17T00:10:49.476Z,21.10
2022-08-17T00:13:20.490Z,21.10
2022-08-17T00:15:47.324Z,21.20
2022-08-17T00:19:01.134Z,21.00
2022-08-17T00:21:00.788Z,20.80
2022-08-17T00:23:27.619Z,20.80
2022-08-17T00:25:54.597Z,20.70
2022-08-17T00:28:21.611Z,20.70
2022-08-17T00:30:53.064Z,20.90
2022-08-17T00:33:24.353Z,21.10
2022-08-17T00:35:51.442Z,21.20
2022-08-17T00:38:18.453Z,21.20
2022-08-17T00:40:49.576Z,21.00
2022-08-17T00:43:23.100Z,20.70
2022-08-17T00:45:49.852Z,20.90
2022-08-17T00:48:27.203Z,21.00
2022-08-17T00:51:00.209Z,21.00
2022-08-17T00:53:27.205Z,21.00
2022-08-17T00:55:53.961Z,20.80
2022-08-17T00:58:35.435Z,20.70
2022-08-17T01:01:04.274Z,21.00
2022-08-17T01:03:31.431Z,20.80
2022-08-17T01:05:59.442Z,20.80
2022-08-17T01:08:27.285Z,20.80
2022-08-17T01:11:00.581Z,20.80
2022-08-17T01:13:28.802Z,20.70
2022-08-17T01:15:57.883Z,20.80
2022-08-17T01:18:24.952Z,20.70
2022-08-17T01:20:52.427Z,20.60
2022-08-17T01:23:21.018Z,20.80
2022-08-17T01:25:49.531Z,20.70
2022-08-17T01:28:33.592Z,20.50
2022-08-17T01:31:03.555Z,20.50
2022-08-17T01:33:30.319Z,20.50
2022-08-17T01:35:57.336Z,20.60
2022-08-17T01:38:27.510Z,20.60
2022-08-17T01:40:57.401Z,20.60
2022-08-17T01:43:25.525Z,20.80
2022-08-17T01:46:02.519Z,20.90
2022-08-17T01:48:33.893Z,20.90
2022-08-17T01:51:00.941Z,20.50
2022-08-17T01:53:29.498Z,20.80
2022-08-17T01:55:57.368Z,20.90
2022-08-17T01:58:24.169Z,20.70
2022-08-17T02:01:00.662Z,20.80
2022-08-17T02:03:28.391Z,20.70
2022-08-17T02:05:55.231Z,20.90
2022-08-17T02:08:38.896Z,20.80
2022-08-17T02:11:11.943Z,20.80
2022-08-17T02:13:38.974Z,20.60
2022-08-17T02:16:05.828Z,20.50
2022-08-17T02:18:32.582Z,20.30
2022-08-17T02:20:59.373Z,20.40
2022-08-17T02:23:26.701Z,20.20
2022-08-17T02:25:53.425Z,20.50
2022-08-17T02:28:20.171Z,20.50
2022-08-17T02:31:01.667Z,20.60
2022-08-17T02:33:41.608Z,20.60
2022-08-17T02:36:09.228Z,20.50
2022-08-17T02:38:36.609Z,20.30
2022-08-17T02:41:03.418Z,20.40
2022-08-17T02:43:30.231Z,20.30
2022-08-17T02:45:56.971Z,20.40
2022-08-17T02:48:30.701Z,20.30
2022-08-17T02:50:59.198Z,20.40
2022-08-17T02:53:26.160Z,20.50
2022-08-17T02:55:52.920Z,20.40
2022-08-17T02:58:34.454Z,20.20
2022-08-17T03:01:03.431Z,20.40
2022-08-17T03:03:30.235Z,20.60
2022-08-17T03:05:56.983Z,20.10
2022-08-17T03:08:23.914Z,20.40
2022-08-17T03:10:50.772Z,20.50
2022-08-17T03:13:17.553Z,20.10
2022-08-17T03:15:47.525Z,20.30
2022-08-17T03:18:19.274Z,20.50
2022-08-17T03:20:52.314Z,20.20
2022-08-17T03:23:19.176Z,20.20
2022-08-17T03:25:52.931Z,19.90
2022-08-17T03:28:20.360Z,19.90
2022-08-17T03:30:47.125Z,19.90
2022-08-17T03:33:13.923Z,20.10
2022-08-17T03:35:40.851Z,19.80
2022-08-17T03:38:08.385Z,20.10
2022-08-17T03:40:56.361Z,20.00
2022-08-17T03:43:21.972Z,19.80
2022-08-17T03:46:23.718Z,20.00
2022-08-17T03:49:12.747Z,20.10
2022-08-17T03:51:58.206Z,20.20
2022-08-17T03:54:43.421Z,20.10
2022-08-17T03:57:10.422Z,20.00
2022-08-17T03:59:37.255Z,19.80
2022-08-17T04:02:07.508Z,19.90
2022-08-17T04:04:34.291Z,19.80
2022-08-17T04:07:01.043Z,20.00
2022-08-17T04:09:27.979Z,20.00
2022-08-17T04:11:54.721Z,20.10
2022-08-17T04:14:24.299Z,20.10
2022-08-17T04:16:51.048Z,20.10
2022-08-17T04:19:17.788Z,20.40
2022-08-17T04:21:44.522Z,20.30
2022-08-17T04:24:11.228Z,20.30
2022-08-17T04:26:52.474Z,20.30
2022-08-17T04:29:21.435Z,20.40
2022-08-17T04:31:48.225Z,20.30
2022-08-17T04:34:15.007Z,20.30
2022-08-17T04:36:50.131Z,20.50
2022-08-17T04:39:17.366Z,20.70
2022-08-17T04:42:02.758Z,20.50
2022-08-17T04:44:37.859Z,20.50
2022-08-17T04:47:05.192Z,20.50
2022-08-17T04:49:32.705Z,20.80
2022-08-17T04:52:04.158Z,20.80
2022-08-17T04:54:31.371Z,20.60
2022-08-17T04:56:58.095Z,20.90
2022-08-17T04:59:24.979Z,21.00
2022-08-17T05:01:51.810Z,20.60
2022-08-17T05:04:32.154Z,20.60
2022-08-17T05:07:00.424Z,20.60
2022-08-17T05:09:27.190Z,20.70
2022-08-17T05:11:53.907Z,20.90
2022-08-17T05:14:33.110Z,21.10
2022-08-17T05:17:00.952Z,21.00
2022-08-17T05:19:28.010Z,21.20
2022-08-17T05:21:54.789Z,21.60
2022-08-17T05:24:42.489Z,21.70
2022-08-17T05:27:08.215Z,21.90
2022-08-17T05:29:35.410Z,22.00
2022-08-17T05:32:38.495Z,21.80
2022-08-17T05:35:00.342Z,21.90
2022-08-17T05:37:27.357Z,21.90
2022-08-17T05:39:54.143Z,21.90
2022-08-17T05:42:21.026Z,22.00
2022-08-17T05:44:47.772Z,22.10
2022-08-17T05:47:14.507Z,22.40
2022-08-17T05:49:41.328Z,22.60
2022-08-17T05:52:10.069Z,22.50
2022-08-17T05:54:39.709Z,22.30
2022-08-17T05:57:12.623Z,22.60
2022-08-17T05:59:42.115Z,22.70
2022-08-17T06:02:29.097Z,22.50
2022-08-17T06:04:55.864Z,22.60
2022-08-17T06:07:32.382Z,22.70
2022-08-17T06:10:08.204Z,22.60
2022-08-17T06:12:55.236Z,22.80
2022-08-17T06:15:27.887Z,22.90
2022-08-17T06:17:56.341Z,23.10
2022-08-17T06:20:23.171Z,23.20
2022-08-17T06:22:50.831Z,23.40
2022-08-17T06:25:18.089Z,23.50
2022-08-17T06:27:47.352Z,23.70
2022-08-17T06:30:25.511Z,24.10
2022-08-17T06:32:52.847Z,24.20
2022-08-17T06:35:28.830Z,24.20
2022-08-17T06:37:58.194Z,24.50
2022-08-17T06:40:35.872Z,24.80
2022-08-17T06:43:09.126Z,24.90
2022-08-17T06:45:39.630Z,25.10
2022-08-17T06:48:13.319Z,25.20
2022-08-17T06:50:42.617Z,25.20
2022-08-17T06:53:26.482Z,25.20
2022-08-17T06:55:53.199Z,25.40
2022-08-17T06:58:21.344Z,25.50
2022-08-17T07:00:49.087Z,25.40
2022-08-17T07:03:37.780Z,25.70
2022-08-17T07:06:10.635Z,25.70
2022-08-17T07:08:38.142Z,25.80
2022-08-17T07:11:09.447Z,25.90
2022-08-17T07:13:49.255Z,26.00
2022-08-17T07:16:21.717Z,26.00
2022-08-17T07:18:49.835Z,26.30
2022-08-17T07:21:26.709Z,26.30
2022-08-17T07:24:00.647Z,26.30
2022-08-17T07:26:28.115Z,26.40
2022-08-17T07:28:56.308Z,26.70
2022-08-17T07:31:23.857Z,26.80
2022-08-17T07:33:58.257Z,27.20
2022-08-17T07:36:29.581Z,27.30
2022-08-17T07:38:57.582Z,27.30
2022-08-17T07:41:24.292Z,27.40
2022-08-17T07:43:52.771Z,27.40
2022-08-17T07:46:41.665Z,27.40
2022-08-17T07:49:12.709Z,27.40
2022-08-17T07:51:39.647Z,27.50
2022-08-17T07:54:14.738Z,27.60
2022-08-17T07:56:48.832Z,27.70
2022-08-17T07:59:17.013Z,27.80
2022-08-17T08:02:00.850Z,27.80
2022-08-17T08:07:20.595Z,27.90
2022-08-17T08:09:59.901Z,28.10
2022-08-17T08:12:32.695Z,28.40
2022-08-17T08:15:20.727Z,28.60
2022-08-17T08:17:50.526Z,28.30
2022-08-17T08:20:52.496Z,28.70
2022-08-17T08:23:26.043Z,28.80
2022-08-17T08:26:01.833Z,28.70
2022-08-17T08:28:49.474Z,28.80
2022-08-17T08:31:38.892Z,28.70
2022-08-17T08:34:49.732Z,29.00
2022-08-17T08:37:19.150Z,29.40
2022-08-17T08:39:52.776Z,29.40
2022-08-17T08:42:28.635Z,29.30
2022-08-17T08:45:10.447Z,29.40
2022-08-17T08:47:45.230Z,29.50
2022-08-17T08:50:37.540Z,29.30
2022-08-17T08:53:07.751Z,29.20
2022-08-17T08:55:45.593Z,29.20
2022-08-17T08:58:31.478Z,29.50
2022-08-17T09:01:02.704Z,29.70
2022-08-17T09:03:52.340Z,30.10
2022-08-17T09:06:32.464Z,30.10
2022-08-17T09:09:12.042Z,30.10
2022-08-17T09:12:02.024Z,30.10
2022-08-17T09:14:45.015Z,29.90
2022-08-17T09:17:17.209Z,30.00
2022-08-17T09:19:46.983Z,30.40
2022-08-17T09:22:31.546Z,30.70
2022-08-17T09:25:04.610Z,30.90
2022-08-17T09:27:32.627Z,32.00
2022-08-17T09:30:00.251Z,32.40
2022-08-17T09:32:32.975Z,32.30
2022-08-17T09:35:04.301Z,31.70
2022-08-17T09:37:37.827Z,32.00
2022-08-17T09:40:23.952Z,32.10
2022-08-17T09:42:53.777Z,31.70
2022-08-17T09:45:52.963Z,31.70
2022-08-17T09:48:39.412Z,31.60
2022-08-17T09:51:20.882Z,32.00
2022-08-17T09:53:47.628Z,32.40
2022-08-17T09:56:14.342Z,32.60
2022-08-17T09:58:50.513Z,32.70
2022-08-17T10:01:24.141Z,32.80
2022-08-17T10:03:53.869Z,32.80
2022-08-17T10:06:23.248Z,32.90
2022-08-17T10:08:52.413Z,32.80
2022-08-17T10:11:19.365Z,33.30
2022-08-17T10:14:37.318Z,33.20
2022-08-17T10:17:08.436Z,33.40
2022-08-17T10:19:39.294Z,33.90
2022-08-17T10:22:34.616Z,33.60
2022-08-17T10:25:22.810Z,34.60
2022-08-17T10:28:01.568Z,34.80
2022-08-17T10:30:28.960Z,35.90
2022-08-17T10:32:57.586Z,35.80
2022-08-17T10:35:26.014Z,36.40
2022-08-17T10:37:59.315Z,36.90
2022-08-17T10:40:31.106Z,37.20
2022-08-17T10:42:57.965Z,37.80
2022-08-17T10:45:35.445Z,37.40
2022-08-17T10:48:06.810Z,37.20
2022-08-17T10:50:46.323Z,38.00
2022-08-17T10:53:33.386Z,39.40
2022-08-17T10:56:12.349Z,38.80
2022-08-17T10:58:49.690Z,39.30
2022-08-17T11:01:17.101Z,38.30
2022-08-17T11:03:52.463Z,39.10
2022-08-17T11:06:22.799Z,39.40
2022-08-17T11:08:58.130Z,40.10
2022-08-17T11:11:34.520Z,41.10
2022-08-17T11:14:11.209Z,41.10
2022-08-17T11:16:47.995Z,41.30
2022-08-17T11:19:29.839Z,41.20
2022-08-17T11:22:15.033Z,39.10
2022-08-17T11:24:43.397Z,39.00
2022-08-17T11:27:29.169Z,38.10
2022-08-17T11:30:01.535Z,38.80
2022-08-17T11:32:37.494Z,40.00
2022-08-17T11:35:07.244Z,41.90
2022-08-17T11:37:36.809Z,42.90
2022-08-17T11:40:06.738Z,43.00
2022-08-17T11:42:39.397Z,43.10
2022-08-17T11:45:31.731Z,43.60
2022-08-17T11:48:29.029Z,42.90
2022-08-17T11:51:18.840Z,42.10
2022-08-17T11:53:45.986Z,43.90
2022-08-17T11:56:13.382Z,42.90
2022-08-17T11:58:44.065Z,42.10
2022-08-17T12:01:13.562Z,41.30
2022-08-17T12:03:55.520Z,40.60
2022-08-17T12:06:22.857Z,39.20
2022-08-17T12:09:08.211Z,41.20
2022-08-17T12:11:55.508Z,41.20
2022-08-17T12:14:51.336Z,40.20
2022-08-17T12:17:20.855Z,40.30
2022-08-17T12:20:18.243Z,39.30
2022-08-17T12:22:47.928Z,38.70
2022-08-17T12:25:16.886Z,39.80
2022-08-17T12:28:04.541Z,38.90
2022-08-17T12:30:33.729Z,40.40
2022-08-17T12:33:00.605Z,40.90
2022-08-17T12:35:29.826Z,43.00
2022-08-17T12:37:57.904Z,43.70
2022-08-17T12:40:27.140Z,44.00
2022-08-17T12:42:57.951Z,42.20
2022-08-17T12:45:25.723Z,42.20
2022-08-17T12:48:02.745Z,42.10
2022-08-17T12:50:30.311Z,40.60
2022-08-17T12:53:01.618Z,40.70
2022-08-17T12:55:33.735Z,43.10
2022-08-17T12:58:01.840Z,44.40
2022-08-17T13:00:38.074Z,45.00
2022-08-17T13:03:07.807Z,45.50
2022-08-17T13:05:41.597Z,47.20
2022-08-17T13:08:13.592Z,47.20
2022-08-17T13:10:40.366Z,46.10
2022-08-17T13:13:20.737Z,46.50
2022-08-17T13:16:17.042Z,46.70
2022-08-17T13:18:54.084Z,46.00
2022-08-17T13:21:23.868Z,45.50
2022-08-17T13:24:02.600Z,45.20
2022-08-17T13:26:31.462Z,43.40
2022-08-17T13:28:58.228Z,43.70
2022-08-17T13:31:28.067Z,42.40
2022-08-17T13:34:13.598Z,41.30
2022-08-17T13:36:41.428Z,41.30
2022-08-17T13:39:13.531Z,41.30
2022-08-17T13:41:40.314Z,40.20
2022-08-17T13:44:28.276Z,39.70
2022-08-17T13:46:57.111Z,39.30
2022-08-17T13:49:24.317Z,39.20
2022-08-17T13:52:07.823Z,38.50
2022-08-17T13:54:35.174Z,38.00
2022-08-17T13:57:17.164Z,37.40
2022-08-17T13:59:55.293Z,36.20
2022-08-17T14:02:22.601Z,36.30
2022-08-17T14:04:53.981Z,36.60
2022-08-17T14:07:23.255Z,36.20
2022-08-17T14:10:02.144Z,37.00
2022-08-17T14:12:29.519Z,37.30
2022-08-17T14:14:56.519Z,37.30
2022-08-17T14:17:23.650Z,36.90
2022-08-17T14:19:50.963Z,37.00
2022-08-17T14:22:19.223Z,36.90
2022-08-17T14:24:46.076Z,36.00
2022-08-17T14:27:12.829Z,36.20
2022-08-17T14:29:41.317Z,36.30
2022-08-17T14:32:12.095Z,36.20
2022-08-17T14:34:38.841Z,35.50
2022-08-17T14:37:05.666Z,35.30
2022-08-17T14:39:32.890Z,35.00
2022-08-17T14:42:00.505Z,34.50
2022-08-17T14:44:27.209Z,34.40
2022-08-17T14:46:53.970Z,34.20
2022-08-17T14:49:20.758Z,34.20
2022-08-17T14:51:47.534Z,34.60
2022-08-17T14:54:32.993Z,35.10
2022-08-17T14:57:22.877Z,35.00
2022-08-17T14:59:51.719Z,34.90
2022-08-17T15:02:22.365Z,34.60
2022-08-17T15:05:01.870Z,34.50
2022-08-17T15:07:30.799Z,34.70
2022-08-17T15:09:58.846Z,34.80
2022-08-17T15:12:32.395Z,34.50
2022-08-17T15:15:01.143Z,34.30
2022-08-17T15:17:45.254Z,34.70
2022-08-17T15:20:15.187Z,35.10
2022-08-17T15:22:42.203Z,35.10
2022-08-17T15:25:09.473Z,34.90
2022-08-17T15:27:36.487Z,34.60
2022-08-17T15:30:05.006Z,34.10
2022-08-17T15:32:35.135Z,34.00
2022-08-17T15:35:02.201Z,33.90
2022-08-17T15:37:29.021Z,33.90
2022-08-17T15:39:55.857Z,34.00
2022-08-17T15:42:22.793Z,34.00
2022-08-17T15:44:49.530Z,33.90
2022-08-17T15:47:18.894Z,34.00
2022-08-17T15:49:45.654Z,33.90
2022-08-17T15:52:19.630Z,33.80
2022-08-17T15:54:50.192Z,33.90
2022-08-17T15:57:16.939Z,33.80
2022-08-17T15:59:44.526Z,33.70
2022-08-17T16:03:01.337Z,33.90
2022-08-17T16:05:04.057Z,34.00
2022-08-17T16:07:36.795Z,34.20
2022-08-17T16:10:04.201Z,34.30
2022-08-17T16:12:30.956Z,34.70
2022-08-17T16:14:57.689Z,35.10
2022-08-17T16:17:39.184Z,35.10
2022-08-17T16:20:19.773Z,35.00
2022-08-17T16:22:47.905Z,34.70
2022-08-17T16:25:16.600Z,34.50
2022-08-17T16:27:43.517Z,34.50
2022-08-17T16:30:16.441Z,34.50
2022-08-17T16:32:44.178Z,34.40
2022-08-17T16:35:11.303Z,34.50
2022-08-17T16:37:39.604Z,34.60
2022-08-17T16:40:08.821Z,34.60
2022-08-17T16:42:37.103Z,34.20
2022-08-17T16:45:11.100Z,33.70
2022-08-17T16:47:38.218Z,33.20
2022-08-17T16:50:06.487Z,32.80
2022-08-17T16:52:33.633Z,32.70
2022-08-17T16:55:01.038Z,32.30
2022-08-17T16:57:27.852Z,32.20
2022-08-17T16:59:54.664Z,32.20
2022-08-17T17:02:25.278Z,32.20
2022-08-17T17:04:53.366Z,31.90
2022-08-17T17:07:25.762Z,31.90
2022-08-17T17:09:55.459Z,31.80
2022-08-17T17:13:00.772Z,31.60
2022-08-17T17:15:09.097Z,31.40
2022-08-17T17:17:39.875Z,31.30
2022-08-17T17:20:27.598Z,31.20
2022-08-17T17:22:59.184Z,31.00
2022-08-17T17:25:30.550Z,30.60
2022-08-17T17:27:58.850Z,30.40
2022-08-17T17:30:27.634Z,30.20
2022-08-17T17:33:04.645Z,30.10
2022-08-17T17:35:34.605Z,30.00
2022-08-17T17:38:05.301Z,29.80
2022-08-17T17:40:33.358Z,29.70
2022-08-17T17:43:09.480Z,29.50
2022-08-17T17:45:52.254Z,29.40
2022-08-17T17:48:19.071Z,29.20
2022-08-17T17:50:49.472Z,29.00
2022-08-17T17:53:22.620Z,28.70
2022-08-17T17:56:06.480Z,28.40
2022-08-17T17:58:47.876Z,28.50
2022-08-17T18:01:17.413Z,28.40
2022-08-17T18:03:59.542Z,28.20
2022-08-17T18:06:45.474Z,28.30
2022-08-17T18:09:21.888Z,28.10
2022-08-17T18:11:58.961Z,28.30
2022-08-17T18:14:40.969Z,28.30
2022-08-17T18:17:07.722Z,28.20
2022-08-17T18:19:34.846Z,28.20
2022-08-17T18:22:14.439Z,28.20
2022-08-17T18:24:45.388Z,28.00
2022-08-17T18:27:18.874Z,28.00
2022-08-17T18:29:48.485Z,28.20
2022-08-17T18:32:31.348Z,28.00
2022-08-17T18:34:58.095Z,28.00
2022-08-17T18:37:36.986Z,27.90
2022-08-17T18:40:26.940Z,28.00
2022-08-17T18:42:58.417Z,27.90
2022-08-17T18:45:34.033Z,27.60
2022-08-17T18:48:00.794Z,27.50
2022-08-17T18:50:28.695Z,27.30
2022-08-17T18:52:56.153Z,27.20
2022-08-17T18:55:24.410Z,27.10
2022-08-17T18:57:52.589Z,27.00
2022-08-17T19:00:19.487Z,26.80
2022-08-17T19:03:00.095Z,26.60
2022-08-17T19:05:27.149Z,26.80
2022-08-17T19:07:53.995Z,26.50
2022-08-17T19:10:22.087Z,26.70
2022-08-17T19:12:53.180Z,26.60
2022-08-17T19:15:23.530Z,26.60
2022-08-17T19:18:01.339Z,26.60
2022-08-17T19:20:34.389Z,26.60
2022-08-17T19:23:07.352Z,26.70
2022-08-17T19:25:34.991Z,26.80
2022-08-17T19:28:21.834Z,26.80
2022-08-17T19:30:51.200Z,26.70
2022-08-17T19:33:17.939Z,26.50
2022-08-17T19:35:54.982Z,26.30
2022-08-17T19:38:36.677Z,26.20
2022-08-17T19:41:12.728Z,26.20
2022-08-17T19:43:39.438Z,26.20
2022-08-17T19:46:16.991Z,26.20
2022-08-17T19:48:51.110Z,26.20
2022-08-17T19:51:20.243Z,26.00
2022-08-17T19:54:06.922Z,25.90
2022-08-17T19:56:36.812Z,26.00
2022-08-17T19:59:12.258Z,25.80
2022-08-17T20:01:46.877Z,25.60
2022-08-17T20:04:13.721Z,25.30
2022-08-17T20:06:40.808Z,25.50
2022-08-17T20:09:33.348Z,25.30
2022-08-17T20:12:09.214Z,25.10
2022-08-17T20:14:37.919Z,25.20
2022-08-17T20:17:04.958Z,25.20
2022-08-17T20:19:35.764Z,25.30
2022-08-17T20:22:11.806Z,25.30
2022-08-17T20:24:47.661Z,25.40
2022-08-17T20:27:15.545Z,25.30
2022-08-17T20:30:09.381Z,25.40
2022-08-17T20:32:38.506Z,25.30
2022-08-17T20:35:08.240Z,25.20
2022-08-17T20:37:35.095Z,25.10
2022-08-17T20:40:05.483Z,25.10
2022-08-17T20:42:32.974Z,25.20
2022-08-17T20:45:05.599Z,25.30
2022-08-17T20:47:33.972Z,25.40
2022-08-17T20:50:00.764Z,25.40
2022-08-17T20:52:46.072Z,25.30
2022-08-17T20:55:31.335Z,25.30
2022-08-17T20:57:59.823Z,25.40
2022-08-17T21:00:29.677Z,25.30
2022-08-17T21:03:14.943Z,25.40
2022-08-17T21:05:59.714Z,25.30
2022-08-17T21:08:28.771Z,25.40
2022-08-17T21:10:55.798Z,25.10
2022-08-17T21:13:45.522Z,24.90
2022-08-17T21:16:21.389Z,24.80
2022-08-17T21:19:02.516Z,24.90
2022-08-17T21:21:41.633Z,24.80
2022-08-17T21:24:08.390Z,24.70
2022-08-17T21:26:38.990Z,24.60
2022-08-17T21:29:32.593Z,24.50
2022-08-17T21:32:03.655Z,24.40
2022-08-17T21:34:35.027Z,24.50
2022-08-17T21:37:31.148Z,24.50
2022-08-17T21:40:02.321Z,24.50
2022-08-17T21:42:31.693Z,24.60
2022-08-17T21:45:08.745Z,24.80
2022-08-17T21:47:35.489Z,24.80
2022-08-17T21:50:16.344Z,24.80
2022-08-17T21:52:43.130Z,24.70
2022-08-17T21:55:10.920Z,24.50
2022-08-17T21:57:38.323Z,24.60
2022-08-17T22:00:05.657Z,24.60
2022-08-17T22:02:36.198Z,24.50
2022-08-17T22:05:02.962Z,24.50
2022-08-17T22:07:48.645Z,24.60
2022-08-17T22:10:27.684Z,24.50
2022-08-17T22:13:06.407Z,24.40
2022-08-17T22:15:44.362Z,24.00
2022-08-17T22:18:24.739Z,23.90
2022-08-17T22:20:58.104Z,23.90
2022-08-17T22:24:05.792Z,23.90
2022-08-17T22:26:51.154Z,23.90
2022-08-17T22:29:37.415Z,23.80
2022-08-17T22:32:04.199Z,24.00
2022-08-17T22:34:30.937Z,23.90
2022-08-17T22:37:16.404Z,24.00
2022-08-17T22:39:43.247Z,24.20
2022-08-17T22:42:13.843Z,24.30
2022-08-17T22:44:48.067Z,24.30
2022-08-17T22:47:14.941Z,24.30
2022-08-17T22:49:53.450Z,24.20
2022-08-17T22:52:24.032Z,24.20
2022-08-17T22:55:22.961Z,24.00
2022-08-17T22:58:08.749Z,24.00
2022-08-17T23:00:37.551Z,24.20
2022-08-17T23:03:05.812Z,24.00
2022-08-17T23:05:34.119Z,24.10
2022-08-17T23:08:00.873Z,24.10
2022-08-17T23:10:27.967Z,24.10
2022-08-17T23:12:59.081Z,24.20
2022-08-17T23:15:33.226Z,24.10
2022-08-17T23:18:04.634Z,24.10
2022-08-17T23:20:37.945Z,24.00
2022-08-17T23:23:06.718Z,24.00
2022-08-17T23:25:33.995Z,23.90
2022-08-17T23:28:03.699Z,23.80
2022-08-17T23:30:31.356Z,23.60
2022-08-17T23:33:02.552Z,23.60
2022-08-17T23:35:40.425Z,23.50
2022-08-17T23:38:10.852Z,23.30
2022-08-17T23:40:39.201Z,23.40
2022-08-17T23:43:11.477Z,23.40
2022-08-17T23:45:52.285Z,23.40
2022-08-17T23:48:36.110Z,23.40
2022-08-17T23:51:24.020Z,23.50
2022-08-17T23:53:54.226Z,23.50
2022-08-17T23:56:26.754Z,23.50
2022-08-17T23:58:54.845Z,23.50
